createdAt,value
2022-11-16T15:06:27.051Z,21.42
2022-11-16T15:09:05.656Z,16.48
2022-11-16T15:12:01.543Z,20.40
2022-11-16T15:14:33.007Z,17.75
2022-11-16T15:17:01.119Z,19.75
2022-11-16T15:19:30.865Z,20.40
2022-11-16T15:22:00.815Z,17.88
2022-11-16T15:24:34.133Z,17.77
2022-11-16T15:27:12.606Z,17.65
2022-11-16T15:29:40.967Z,15.43
2022-11-16T15:32:15.835Z,21.70
2022-11-16T15:34:48.479Z,15.60
2022-11-16T15:37:29.992Z,19.17
2022-11-16T15:39:59.133Z,17.63
2022-11-16T15:42:27.898Z,18.98
2022-11-16T15:44:56.773Z,17.65
2022-11-16T15:47:25.008Z,14.30
2022-11-16T15:49:53.858Z,14.73
2022-11-16T15:52:47.603Z,17.35
2022-11-16T15:55:35.605Z,18.77
2022-11-16T15:58:05.002Z,15.95
2022-11-16T16:00:35.467Z,17.88
2022-11-16T16:03:17.215Z,16.77
2022-11-16T16:05:45.809Z,16.08
2022-11-16T16:08:44.977Z,15.27
2022-11-16T16:11:27.486Z,14.38
2022-11-16T16:14:03.495Z,14.93
2022-11-16T16:16:36.289Z,15.68
2022-11-16T16:19:09.946Z,16.38
2022-11-16T16:21:44.098Z,16.17
2022-11-16T16:24:41.405Z,17.02
2022-11-16T16:27:18.043Z,15.45
2022-11-16T16:29:51.494Z,17.85
2022-11-16T16:32:27.847Z,17.48
2022-11-16T16:34:57.365Z,12.18
2022-11-16T16:37:32.666Z,14.68
2022-11-16T16:40:00.881Z,21.33
2022-11-16T16:42:29.234Z,16.10
2022-11-16T16:44:59.942Z,10.52
2022-11-16T16:47:28.288Z,14.75
2022-11-16T16:49:56.316Z,12.23
2022-11-16T16:52:24.699Z,13.38
2022-11-16T16:54:52.656Z,11.15
2022-11-16T16:57:20.976Z,11.38
2022-11-16T16:59:49.249Z,9.23
2022-11-16T17:02:17.840Z,8.50
2022-11-16T17:04:49.132Z,9.80
2022-11-16T17:07:17.943Z,15.88
2022-11-16T17:09:46.049Z,8.80
2022-11-16T17:12:14.425Z,10.45
2022-11-16T17:14:42.498Z,8.57
2022-11-16T17:17:10.899Z,7.82
2022-11-16T17:19:38.922Z,9.98
2022-11-16T17:22:07.234Z,6.82
2022-11-16T17:24:35.846Z,8.68
2022-11-16T17:27:04.335Z,7.78
2022-11-16T17:29:32.378Z,9.98
2022-11-16T17:32:00.799Z,8.75
2022-11-16T17:34:28.830Z,7.13
2022-11-16T17:36:57.276Z,6.57
2022-11-16T17:39:25.281Z,7.40
2022-11-16T17:41:53.569Z,8.98
2022-11-16T17:44:22.281Z,5.45
2022-11-16T17:46:50.786Z,6.28
2022-11-16T17:49:18.769Z,5.40
2022-11-16T17:51:47.088Z,4.68
2022-11-16T17:54:15.065Z,6.13
2022-11-16T17:56:43.513Z,5.63
2022-11-16T17:59:11.469Z,6.72
2022-11-16T18:01:39.842Z,10.32
2022-11-16T18:04:07.925Z,7.28
2022-11-16T18:06:36.423Z,7.03
2022-11-16T18:09:04.441Z,7.78
2022-11-16T18:11:33.031Z,7.78
2022-11-16T18:14:02.054Z,9.73
2022-11-16T18:16:32.389Z,9.20
2022-11-16T18:19:03.104Z,11.60
2022-11-16T18:21:33.783Z,11.02
2022-11-16T18:24:02.859Z,12.18
2022-11-16T18:26:31.229Z,12.43
2022-11-16T18:28:59.189Z,15.68
2022-11-16T18:31:27.601Z,13.82
2022-11-16T18:33:55.672Z,11.85
2022-11-16T18:36:24.017Z,11.27
2022-11-16T18:38:52.104Z,8.23
2022-11-16T18:41:22.866Z,7.65
2022-11-16T18:43:56.601Z,7.38
2022-11-16T18:46:30.103Z,8.60
2022-11-16T18:48:58.484Z,8.45
2022-11-16T18:51:27.847Z,6.47
2022-11-16T18:53:56.157Z,9.13
2022-11-16T18:56:27.892Z,6.13
2022-11-16T18:58:55.935Z,10.63
2022-11-16T19:01:26.051Z,6.00
2022-11-16T19:03:55.771Z,5.85
2022-11-16T19:06:24.609Z,7.72
2022-11-16T19:08:59.419Z,8.82
2022-11-16T19:11:28.856Z,8.02
2022-11-16T19:14:04.760Z,6.55
2022-11-16T19:16:33.391Z,6.57
2022-11-16T19:19:04.102Z,4.85
2022-11-16T19:21:32.667Z,6.20
2022-11-16T19:24:00.788Z,8.60
2022-11-16T19:26:29.293Z,7.32
2022-11-16T19:28:58.041Z,7.82
2022-11-16T19:31:28.937Z,7.80
2022-11-16T19:33:58.881Z,8.00
2022-11-16T19:36:28.873Z,8.75
2022-11-16T19:38:57.158Z,7.43
2022-11-16T19:41:26.566Z,11.07
2022-11-16T19:43:58.709Z,8.20
2022-11-16T19:46:28.884Z,9.57
2022-11-16T19:48:57.776Z,7.82
2022-11-16T19:51:28.612Z,7.53
2022-11-16T19:53:58.028Z,11.25
2022-11-16T19:56:26.622Z,9.60
2022-11-16T19:58:54.709Z,11.88
2022-11-16T20:01:27.810Z,10.38
2022-11-16T20:03:57.667Z,11.60
2022-11-16T20:06:29.235Z,11.15
2022-11-16T20:09:00.722Z,14.10
2022-11-16T20:11:31.208Z,12.05
2022-11-16T20:13:59.504Z,11.20
2022-11-16T20:16:35.393Z,14.60
2022-11-16T20:19:05.938Z,12.50
2022-11-16T20:21:39.505Z,13.68
2022-11-16T20:24:10.178Z,13.55
2022-11-16T20:26:45.468Z,16.63
2022-11-16T20:29:14.682Z,14.82
2022-11-16T20:31:45.322Z,15.75
2022-11-16T20:34:15.771Z,15.57
2022-11-16T20:36:45.632Z,16.67
2022-11-16T20:39:18.266Z,17.23
2022-11-16T20:41:47.983Z,14.43
2022-11-16T20:44:22.360Z,17.00
2022-11-16T20:46:52.644Z,17.98
2022-11-16T20:49:20.999Z,23.00
2022-11-16T20:51:51.113Z,19.70
2022-11-16T20:54:19.164Z,18.55
2022-11-16T20:56:49.639Z,18.55
2022-11-16T20:59:18.737Z,20.30
2022-11-16T21:01:48.850Z,15.95
2022-11-16T21:04:17.160Z,17.40
2022-11-16T21:06:45.870Z,17.63
2022-11-16T21:09:22.615Z,18.13
2022-11-16T21:12:09.676Z,16.92
2022-11-16T21:14:37.759Z,18.23
2022-11-16T21:17:06.154Z,21.85
2022-11-16T21:19:34.229Z,22.05
2022-11-16T21:22:03.068Z,22.63
2022-11-16T21:24:32.227Z,18.83
2022-11-16T21:27:00.704Z,19.35
2022-11-16T21:29:28.777Z,24.50
2022-11-16T21:31:57.122Z,21.73
2022-11-16T21:34:27.857Z,24.25
2022-11-16T21:36:56.192Z,19.52
2022-11-16T21:39:24.147Z,21.90
2022-11-16T21:41:52.522Z,18.60
2022-11-16T21:44:20.505Z,17.33
2022-11-16T21:46:48.783Z,20.42
